Time;durP1;ratioP1;P1;durP2;ratioP2;P2;SDS_P1;SDS_P2;PMS_P1;PMS_P2;Temp;Humidity;BMP_temperature;BMP_pressure;BME280_temperature;BME280_humidity;BME280_pressure;Samples;Min_cycle;Max_cycle;Signal;HPM_P1;HPM_P2
2024/01/29 00:02:18;;;;;;;3.60;1.50;;;;;;;6.99;41.68;100490.41;4992493;28;20046;-79
2024/01/29 00:04:44;;;;;;;1.98;1.25;;;;;;;6.95;41.70;100481.03;4992727;28;20069;-80
2024/01/29 00:07:09;;;;;;;2.28;1.25;;;;;;;6.84;41.68;100479.63;4943653;28;20545;-79
2024/01/29 00:09:35;;;;;;;2.53;1.33;;;;;;;6.86;41.49;100484.78;4959335;28;20097;-80
2024/01/29 00:12:01;;;;;;;2.17;1.50;;;;;;;6.75;41.33;100479.94;4958932;28;20054;-79
2024/01/29 00:14:27;;;;;;;2.17;1.25;;;;;;;6.71;41.68;100491.34;4942933;28;20521;-78
2024/01/29 00:16:52;;;;;;;2.33;1.20;;;;;;;6.72;41.45;100499.97;4958990;28;20090;-80
2024/01/29 00:19:18;;;;;;;2.35;1.48;;;;;;;6.67;41.24;100493.19;4959151;28;20042;-79
2024/01/29 00:21:43;;;;;;;3.58;1.70;;;;;;;6.64;41.58;100502.78;4959021;28;20046;-80
2024/01/29 00:24:09;;;;;;;3.92;1.40;;;;;;;6.56;41.55;100491.81;4958893;28;20039;-78
2024/01/29 00:26:34;;;;;;;2.35;1.52;;;;;;;6.57;41.12;100507.34;4962240;28;20045;-80
2024/01/29 00:29:00;;;;;;;2.85;1.70;;;;;;;6.51;41.46;100515.31;4962070;28;20038;-79
2024/01/29 00:31:27;;;;;;;2.25;1.50;;;;;;;6.48;41.38;100523.19;4962713;28;20552;-78
2024/01/29 00:33:53;;;;;;;2.85;1.70;;;;;;;6.44;41.07;100524.19;4945534;28;20417;-79
2024/01/29 00:36:18;;;;;;;2.67;1.60;;;;;;;6.35;41.29;100520.13;4962255;28;20038;-80
2024/01/29 00:38:44;;;;;;;2.55;1.65;;;;;;;6.28;40.68;100519.47;4945810;28;20054;-80
2024/01/29 00:41:09;;;;;;;3.30;1.75;;;;;;;6.26;41.14;100529.03;4995494;28;20108;-79
2024/01/29 00:43:35;;;;;;;2.22;1.55;;;;;;;6.28;41.05;100535.03;4977845;28;20035;-80
2024/01/29 00:46:00;;;;;;;2.78;1.70;;;;;;;6.25;40.79;100540.31;4978222;28;20058;-80
2024/01/29 00:48:26;;;;;;;3.33;1.73;;;;;;;6.18;41.35;100536.19;4977888;28;20038;-79
2024/01/29 00:50:52;;;;;;;2.67;1.80;;;;;;;6.15;41.45;100537.13;4999588;28;20050;-80
2024/01/29 00:53:17;;;;;;;2.85;1.60;;;;;;;6.10;41.38;100522.59;4965131;28;20034;-79
2024/01/29 00:55:45;;;;;;;2.60;1.77;;;;;;;6.12;41.36;100537.22;4981077;28;20041;-78
2024/01/29 00:58:11;;;;;;;2.28;1.70;;;;;;;6.09;41.69;100539.06;4965169;28;20042;-80
2024/01/29 01:00:38;;;;;;;4.10;1.90;;;;;;;6.06;41.45;100539.16;4980845;28;20045;-79
2024/01/29 01:03:05;;;;;;;3.10;2.00;;;;;;;6.04;41.71;100535.72;4997398;28;20034;-79
2024/01/29 01:05:31;;;;;;;3.60;1.95;;;;;;;6.03;41.51;100528.88;4981256;28;20482;-80
2024/01/29 01:07:56;;;;;;;2.60;1.67;;;;;;;5.99;41.47;100530.69;4981356;28;20033;-80
2024/01/29 01:10:22;;;;;;;3.50;2.00;;;;;;;5.97;41.52;100517.75;4981424;28;20528;-80
2024/01/29 01:12:47;;;;;;;3.38;1.90;;;;;;;5.97;41.64;100524.69;4965575;28;20123;-80
2024/01/29 01:15:13;;;;;;;2.67;1.77;;;;;;;5.96;41.90;100525.53;4981333;28;20046;-79
2024/01/29 01:17:40;;;;;;;3.97;1.77;;;;;;;5.95;41.85;100539.41;4997551;28;20065;-80
2024/01/29 01:20:06;;;;;;;3.25;2.00;;;;;;;5.91;41.77;100537.78;4997008;28;20044;-80
2024/01/29 01:22:32;;;;;;;3.60;1.90;;;;;;;5.89;41.89;100553.38;4981448;28;20025;-80
2024/01/29 01:24:57;;;;;;;2.75;1.80;;;;;;;5.86;41.98;100552.63;4965105;28;20038;-79
2024/01/29 01:27:23;;;;;;;3.60;1.88;;;;;;;5.85;41.58;100554.38;4964940;28;20038;-79
2024/01/29 01:29:48;;;;;;;2.75;1.70;;;;;;;5.87;42.28;100565.53;4997048;28;20191;-79
2024/01/29 01:32:14;;;;;;;2.50;1.55;;;;;;;5.84;41.98;100563.03;4996705;28;20045;-80
2024/01/29 01:34:39;;;;;;;2.90;1.80;;;;;;;5.84;42.24;100568.22;4997056;28;20041;-79
2024/01/29 01:37:05;;;;;;;2.55;1.70;;;;;;;5.83;42.31;100555.31;4995933;28;20500;-80
2024/01/29 01:39:31;;;;;;;3.30;1.92;;;;;;;5.77;42.06;100557.19;4964390;28;20492;-79
2024/01/29 01:41:56;;;;;;;2.95;1.65;;;;;;;5.75;42.16;100558.94;4996998;28;20037;-79
2024/01/29 01:44:22;;;;;;;3.05;1.80;;;;;;;5.73;41.66;100557.31;4980205;28;20039;-79
2024/01/29 01:46:47;;;;;;;2.47;1.60;;;;;;;5.74;42.05;100559.84;4996393;28;20140;-79
2024/01/29 01:49:14;;;;;;;2.17;1.63;;;;;;;5.72;42.22;100556.44;4980896;28;20393;-79
2024/01/29 01:51:40;;;;;;;2.97;1.92;;;;;;;5.71;42.10;100564.25;4980796;28;20459;-79
2024/01/29 01:54:06;;;;;;;2.55;1.50;;;;;;;5.69;42.39;100572.06;4964054;28;20030;-80
2024/01/29 01:56:31;;;;;;;2.25;1.63;;;;;;;5.67;42.06;100571.25;4980293;28;20092;-81
2024/01/29 01:58:57;;;;;;;2.80;1.67;;;;;;;5.63;42.45;100561.88;4964089;28;20034;-80
2024/01/29 02:01:22;;;;;;;3.13;1.70;;;;;;;5.61;42.90;100554.16;4963895;28;20425;-79
2024/01/29 02:03:48;;;;;;;2.97;1.77;;;;;;;5.63;42.61;100564.47;4980164;28;20045;-80
2024/01/29 02:06:13;;;;;;;2.47;1.77;;;;;;;5.62;42.60;100568.78;4996657;28;20042;-79
2024/01/29 02:08:39;;;;;;;3.08;1.75;;;;;;;5.57;42.96;100551.69;4996808;28;20130;-80
2024/01/29 02:11:05;;;;;;;3.22;1.83;;;;;;;5.59;42.53;100563.69;4980540;28;20132;-79
2024/01/29 02:13:31;;;;;;;2.60;1.60;;;;;;;5.59;42.84;100562.84;4964091;28;20512;-79
2024/01/29 02:15:56;;;;;;;3.20;1.60;;;;;;;5.52;42.74;100548.34;4980383;28;20045;-80
2024/01/29 02:18:22;;;;;;;3.10;2.05;;;;;;;5.55;42.52;100553.44;4995802;28;20034;-80
2024/01/29 02:20:47;;;;;;;2.15;1.50;;;;;;;5.57;43.10;100557.72;4996475;28;20038;-80
2024/01/29 02:23:13;;;;;;;2.40;1.50;;;;;;;5.49;43.10;100559.66;4963805;28;20037;-80
2024/01/29 02:25:38;;;;;;;3.10;1.77;;;;;;;5.46;42.34;100549.38;4964252;28;20121;-79
2024/01/29 02:28:04;;;;;;;3.35;1.70;;;;;;;5.49;43.30;100557.06;4980083;28;20044;-78
2024/01/29 02:30:29;;;;;;;2.50;1.60;;;;;;;5.42;42.97;100551.19;4964124;28;20608;-80
2024/01/29 02:32:55;;;;;;;2.97;1.67;;;;;;;5.44;42.81;100545.97;4996953;28;20037;-79
2024/01/29 02:35:20;;;;;;;3.15;1.60;;;;;;;5.47;43.09;100547.63;4963736;28;20046;-79
2024/01/29 02:37:46;;;;;;;3.05;1.95;;;;;;;5.46;43.07;100545.94;4980000;28;20061;-79
2024/01/29 02:40:11;;;;;;;3.08;1.90;;;;;;;5.36;43.47;100537.53;5013529;28;20038;-80
2024/01/29 02:42:37;;;;;;;4.18;1.90;;;;;;;5.37;43.42;100550.44;4979209;28;20188;-78
2024/01/29 02:45:04;;;;;;;3.90;2.63;;;;;;;5.36;43.75;100540.13;4963533;28;20410;-78
2024/01/29 02:47:29;;;;;;;3.28;2.00;;;;;;;5.29;43.73;100538.59;4995870;28;20037;-80
2024/01/29 02:49:55;;;;;;;4.70;2.30;;;;;;;5.32;43.57;100538.53;4979788;28;20038;-80
2024/01/29 02:52:21;;;;;;;4.35;2.30;;;;;;;5.29;43.72;100541.19;4979877;28;20501;-78
2024/01/29 02:54:47;;;;;;;4.82;2.22;;;;;;;5.23;43.98;100535.28;4979907;28;20088;-79
2024/01/29 02:57:12;;;;;;;3.30;2.15;;;;;;;5.28;44.18;100549.84;4963403;28;20058;-79
2024/01/29 02:59:38;;;;;;;3.55;2.40;;;;;;;5.24;43.85;100549.91;4979472;28;20484;-79
2024/01/29 03:02:03;;;;;;;4.13;2.13;;;;;;;5.24;43.95;100554.25;4979227;28;20042;-78
2024/01/29 03:04:29;;;;;;;3.10;2.00;;;;;;;5.24;43.59;100549.91;4979895;28;20034;-80
2024/01/29 03:06:55;;;;;;;2.55;1.75;;;;;;;5.25;44.24;100550.78;4963242;28;20040;-78
2024/01/29 03:09:20;;;;;;;3.10;2.20;;;;;;;5.23;43.95;100539.59;4979321;28;20038;-78
2024/01/29 03:11:46;;;;;;;3.30;2.00;;;;;;;5.18;43.54;100531.09;4963350;28;20046;-79
2024/01/29 03:14:11;;;;;;;3.00;1.63;;;;;;;5.22;43.56;100548.28;4963462;28;20045;-79
2024/01/29 03:16:37;;;;;;;3.65;1.73;;;;;;;5.22;43.53;100549.13;4978870;28;20139;-79
2024/01/29 03:19:02;;;;;;;3.10;1.77;;;;;;;5.21;43.29;100550.00;4994989;28;20045;-80
2024/01/29 03:21:28;;;;;;;3.13;1.70;;;;;;;5.15;43.36;100547.56;4995008;28;20080;-79
2024/01/29 03:23:56;;;;;;;3.70;1.40;;;;;;;5.19;43.56;100556.13;4978726;28;20060;-79
2024/01/29 03:26:22;;;;;;;2.53;1.70;;;;;;;5.18;43.52;100552.66;4978758;28;20062;-78
2024/01/29 03:28:48;;;;;;;2.33;1.60;;;;;;;5.13;43.77;100559.69;4978801;28;20078;-81
2024/01/29 03:31:14;;;;;;;2.33;1.50;;;;;;;5.13;43.27;100557.09;4978975;28;20042;-79
2024/01/29 03:33:39;;;;;;;2.05;1.55;;;;;;;5.19;43.45;100569.06;4978585;28;20123;-79
2024/01/29 03:36:05;;;;;;;2.75;1.40;;;;;;;5.10;43.30;100551.16;4979131;28;20070;-80
2024/01/29 03:38:32;;;;;;;2.60;1.60;;;;;;;5.16;43.57;100561.38;4978541;28;20045;-79
2024/01/29 03:40:58;;;;;;;3.53;1.55;;;;;;;5.11;43.04;100547.66;4963014;28;20449;-80
2024/01/29 03:43:23;;;;;;;2.70;1.50;;;;;;;5.11;43.25;100548.53;4978549;28;20123;-80
2024/01/29 03:45:49;;;;;;;3.25;1.40;;;;;;;5.08;43.34;100544.28;5012053;28;20077;-80
2024/01/29 03:48:14;;;;;;;2.13;1.30;;;;;;;5.12;43.21;100552.81;4974284;28;20054;-80
2024/01/29 03:50:39;;;;;;;1.73;1.20;;;;;;;5.11;43.29;100551.13;4988662;28;20566;-79
2024/01/29 03:53:05;;;;;;;2.28;1.38;;;;;;;5.11;43.41;100550.25;4958323;28;20498;-79
2024/01/29 03:55:31;;;;;;;2.58;1.40;;;;;;;5.08;43.55;100564.13;4974815;28;20050;-80
2024/01/29 03:57:57;;;;;;;5.35;1.60;;;;;;;5.05;43.68;100564.22;4994396;28;20112;-79
2024/01/29 04:00:23;;;;;;;2.17;1.40;;;;;;;5.04;43.28;100558.19;4964232;28;20474;-79
2024/01/29 04:02:49;;;;;;;2.25;1.45;;;;;;;5.00;43.43;100555.72;4998920;28;20523;-80
2024/01/29 04:05:16;;;;;;;2.67;1.52;;;;;;;5.02;43.74;100559.94;4962675;28;20042;-79
2024/01/29 04:07:41;;;;;;;2.30;1.65;;;;;;;4.93;43.65;100546.38;4947017;28;20556;-79
2024/01/29 04:10:07;;;;;;;2.30;1.48;;;;;;;4.95;44.17;100555.81;4962605;28;20073;-80
2024/01/29 04:12:33;;;;;;;2.85;1.52;;;;;;;5.00;43.87;100572.09;4962777;28;20050;-79
2024/01/29 04:14:58;;;;;;;3.25;1.95;;;;;;;4.97;43.87;100568.72;4962701;28;20046;-78
2024/01/29 04:17:24;;;;;;;3.45;2.03;;;;;;;4.96;44.04;100562.69;4962598;28;20031;-77
2024/01/29 04:19:49;;;;;;;2.70;1.80;;;;;;;5.01;44.19;100575.53;4977957;28;20042;-77
2024/01/29 04:22:15;;;;;;;3.42;1.90;;;;;;;5.03;43.96;100579.78;4961258;28;20043;-79
2024/01/29 04:24:40;;;;;;;3.15;2.05;;;;;;;4.98;44.10;100579.06;4962563;28;20042;-79
2024/01/29 04:27:06;;;;;;;3.00;1.90;;;;;;;5.04;44.38;100591.84;4978605;28;20038;-79
2024/01/29 04:29:31;;;;;;;3.30;2.05;;;;;;;4.99;44.51;100593.66;4962832;28;20482;-79
2024/01/29 04:32:00;;;;;;;3.35;2.33;;;;;;;5.02;44.60;100598.78;4962270;28;20568;-79
2024/01/29 04:34:26;;;;;;;3.08;1.85;;;;;;;5.00;44.64;100608.31;4972293;28;20038;-81
2024/01/29 04:36:52;;;;;;;3.35;2.20;;;;;;;5.02;44.63;100614.31;4965215;28;20041;-81
2024/01/29 04:39:17;;;;;;;3.72;2.20;;;;;;;5.02;44.95;100613.47;4981946;28;20076;-85
2024/01/29 04:41:43;;;;;;;4.15;2.50;;;;;;;5.02;44.59;100616.06;4981553;28;20045;-78
2024/01/29 04:44:08;;;;;;;4.15;2.50;;;;;;;5.02;45.17;100622.06;4965386;28;20037;-76
2024/01/29 04:46:34;;;;;;;4.68;2.90;;;;;;;5.02;45.33;100619.47;4965368;28;20040;-82
2024/01/29 04:48:59;;;;;;;4.70;2.80;;;;;;;5.00;45.18;100615.25;4982786;28;20041;-79
2024/01/29 04:51:25;;;;;;;5.28;2.65;;;;;;;5.01;45.40;100612.63;4966111;28;20132;-75
2024/01/29 04:53:51;;;;;;;5.82;2.80;;;;;;;5.14;53.92;100607.13;4981240;28;20550;-75
2024/01/29 04:56:17;;;;;;;6.25;3.03;;;;;;;5.18;51.79;100609.63;4947625;28;20070;-77
2024/01/29 04:58:42;;;;;;;4.97;2.80;;;;;;;5.21;50.82;100613.88;4945996;28;20045;-78
2024/01/29 05:01:08;;;;;;;4.90;2.97;;;;;;;5.19;52.30;100608.75;4945470;28;20042;-78
2024/01/29 05:03:33;;;;;;;7.30;3.13;;;;;;;5.28;52.58;100619.75;4961440;28;20030;-79
2024/01/29 05:05:59;;;;;;;4.38;2.88;;;;;;;5.28;51.53;100606.81;4961410;28;20048;-77
2024/01/29 05:08:24;;;;;;;5.90;3.50;;;;;;;5.30;50.25;100610.19;4977922;28;20128;-77
2024/01/29 05:10:50;;;;;;;5.47;3.35;;;;;;;5.21;49.85;100596.59;4960504;28;20042;-79
2024/01/29 05:13:15;;;;;;;5.00;3.40;;;;;;;5.27;49.30;100608.56;4961825;28;20478;-76
2024/01/29 05:15:41;;;;;;;9.73;4.00;;;;;;;5.21;48.58;100614.72;4961855;28;20049;-79
2024/01/29 05:18:07;;;;;;;5.45;3.90;;;;;;;5.22;48.58;100621.59;4977742;28;20037;-77
2024/01/29 05:20:32;;;;;;;5.70;3.25;;;;;;;5.38;53.62;100624.69;4945933;28;20046;-82
2024/01/29 05:22:58;;;;;;;5.65;3.47;;;;;;;5.39;51.00;100620.34;4951790;28;20125;-82
2024/01/29 05:25:23;;;;;;;5.40;3.38;;;;;;;5.35;50.14;100616.97;4945939;28;20038;-83
2024/01/29 05:27:49;;;;;;;5.70;3.42;;;;;;;5.33;49.20;100613.59;4962013;28;20060;-83
2024/01/29 05:30:15;;;;;;;5.97;3.55;;;;;;;5.32;48.96;100613.63;4984044;28;20053;-83
2024/01/29 05:32:41;;;;;;;6.50;3.47;;;;;;;5.31;48.42;100607.56;4961363;28;20112;-85
2024/01/29 05:35:06;;;;;;;5.60;3.60;;;;;;;5.31;47.98;100606.72;4945032;28;20467;-84
2024/01/29 05:37:34;;;;;;;5.60;3.33;;;;;;;5.31;47.46;100591.19;4961609;28;20038;-83
2024/01/29 05:40:00;;;;;;;6.28;2.88;;;;;;;5.31;46.66;100601.56;4945563;28;20129;-83
2024/01/29 05:42:25;;;;;;;6.22;3.17;;;;;;;5.33;47.08;100607.53;4977309;28;20038;-84
2024/01/29 05:44:51;;;;;;;5.15;3.35;;;;;;;5.36;46.33;100613.50;4977129;28;20509;-84
2024/01/29 05:47:16;;;;;;;4.65;3.10;;;;;;;5.39;46.10;100609.97;4960551;28;20497;-84
2024/01/29 05:49:42;;;;;;;5.72;3.25;;;;;;;5.42;45.91;100617.66;4994560;28;20100;-85
2024/01/29 05:52:07;;;;;;;5.13;3.17;;;;;;;5.42;45.57;100622.84;4960846;28;20046;-84
2024/01/29 05:54:33;;;;;;;6.47;3.47;;;;;;;5.50;45.22;100627.84;4961738;28;20034;-87
2024/01/29 05:56:59;;;;;;;5.05;3.35;;;;;;;5.57;45.26;100639.78;4968099;28;20112;-85
2024/01/29 05:59:24;;;;;;;4.20;2.83;;;;;;;5.59;45.26;100646.59;4980420;28;20037;-84
2024/01/29 06:01:50;;;;;;;4.25;2.97;;;;;;;5.67;44.33;100674.06;4996944;28;20084;-86
2024/01/29 06:04:15;;;;;;;7.18;3.05;;;;;;;5.65;44.96;100671.50;4980157;28;20038;-85
2024/01/29 06:06:42;;;;;;;5.70;2.97;;;;;;;5.71;44.29;100676.53;4980875;28;20448;-84
2024/01/29 06:09:09;;;;;;;4.68;2.85;;;;;;;5.76;44.61;100671.25;4980826;28;20120;-85
2024/01/29 06:11:35;;;;;;;5.50;3.30;;;;;;;5.80;43.97;100667.66;4996925;28;20080;-84
2024/01/29 06:14:01;;;;;;;5.20;3.53;;;;;;;6.05;43.77;100654.94;4965044;28;20490;-85
2024/01/29 06:16:26;;;;;;;4.38;2.88;;;;;;;6.57;42.71;100659.59;4964020;28;20100;-84
2024/01/29 06:18:52;;;;;;;4.90;3.00;;;;;;;7.02;42.19;100656.50;4980712;28;20041;-85
2024/01/29 06:21:17;;;;;;;5.40;3.10;;;;;;;7.70;41.13;100668.19;4980775;28;20041;-86
2024/01/29 06:23:43;;;;;;;4.32;2.88;;;;;;;8.44;39.90;100656.97;4963339;28;20030;-87
2024/01/29 06:26:09;;;;;;;5.60;3.33;;;;;;;9.13;38.53;100654.34;4980932;28;20114;-84
2024/01/29 06:28:35;;;;;;;5.40;3.30;;;;;;;9.84;37.21;100651.44;4980354;28;20034;-86
2024/01/29 06:31:00;;;;;;;5.00;3.20;;;;;;;10.73;35.83;100672.78;4964142;28;20050;-86
2024/01/29 06:33:26;;;;;;;5.15;3.05;;;;;;;11.63;34.29;100666.75;4997013;28;20092;-84
2024/01/29 06:35:51;;;;;;;4.78;3.05;;;;;;;12.53;33.04;100660.41;4981338;28;20038;-85
2024/01/29 06:38:17;;;;;;;4.53;2.92;;;;;;;13.56;31.32;100662.56;4964543;28;20065;-90
2024/01/29 06:40:43;;;;;;;4.85;3.03;;;;;;;14.64;29.54;100671.91;4963718;28;20399;-86
2024/01/29 06:43:08;;;;;;;5.18;2.95;;;;;;;15.70;28.36;100679.13;4996148;28;20532;-86
2024/01/29 06:45:35;;;;;;;3.40;2.35;;;;;;;16.57;31.65;100672.34;4993096;28;20116;-89
2024/01/29 06:48:01;;;;;;;3.88;2.88;;;;;;;17.70;28.34;100669.47;4973802;28;20081;-88
2024/01/29 06:50:27;;;;;;;4.05;2.58;;;;;;;18.69;26.51;100656.56;4980827;28;20046;-90
2024/01/29 06:52:53;;;;;;;3.90;2.50;;;;;;;19.69;24.13;100672.28;4965121;28;20076;-89
2024/01/29 06:55:20;;;;;;;3.10;2.30;;;;;;;20.46;22.79;100660.41;4962237;28;20038;-86
2024/01/29 06:57:46;;;;;;;2.75;1.52;;;;;;;21.45;30.87;100678.25;4965929;28;20052;-87
2024/01/29 07:00:12;;;;;;;3.22;1.90;;;;;;;22.60;25.59;100674.66;4985091;28;20042;-91
2024/01/29 07:02:38;;;;;;;3.03;1.95;;;;;;;23.38;23.50;100681.31;4989763;28;20042;-91
2024/01/29 07:05:04;;;;;;;5.78;1.63;;;;;;;24.13;22.99;100689.72;4971231;28;20102;-90
2024/01/29 07:07:29;;;;;;;4.90;1.80;;;;;;;24.97;20.73;100689.94;4965468;28;20034;-92
2024/01/29 07:09:55;;;;;;;2.55;1.60;;;;;;;25.57;19.19;100683.50;4984376;28;20049;-90
2024/01/29 07:12:20;;;;;;;2.58;1.80;;;;;;;26.21;18.16;100684.63;4984589;28;20521;-92
2024/01/29 07:14:46;;;;;;;2.70;1.77;;;;;;;26.48;17.08;100688.69;4966707;28;20048;-86
2024/01/29 07:17:12;;;;;;;4.70;2.00;;;;;;;26.82;16.44;100685.72;4973353;28;20490;-85
2024/01/29 07:19:37;;;;;;;2.83;1.90;;;;;;;26.87;15.87;100690.56;4973720;28;20057;-86
2024/01/29 07:22:04;;;;;;;3.25;2.10;;;;;;;26.53;15.78;100691.69;4976287;28;20119;-87
2024/01/29 07:24:33;;;;;;;2.80;1.80;;;;;;;26.10;16.40;100678.59;4966101;28;20092;-86
2024/01/29 07:26:59;;;;;;;1.80;1.40;;;;;;;25.48;16.66;100676.50;4979800;28;20034;-81
2024/01/29 07:29:31;;;;;;;4.57;1.80;;;;;;;24.96;17.06;100685.56;4995252;28;20378;-86
2024/01/29 07:31:58;;;;;;;1.92;1.50;;;;;;;24.48;16.71;100695.06;4964482;28;20029;-81
2024/01/29 07:34:23;;;;;;;4.93;2.03;;;;;;;24.03;17.54;100688.97;4992907;28;20108;-82
2024/01/29 07:36:49;;;;;;;2.10;1.70;;;;;;;23.81;17.59;100693.78;4976805;28;20046;-86
2024/01/29 07:39:14;;;;;;;2.70;2.00;;;;;;;23.73;17.65;100684.91;4980491;28;20050;-79
2024/01/29 07:41:40;;;;;;;2.22;1.67;;;;;;;23.52;17.89;100695.91;4982162;28;20038;-80
2024/01/29 07:44:05;;;;;;;3.55;1.70;;;;;;;23.34;18.05;100690.56;4967092;28;20108;-80
2024/01/29 07:46:31;;;;;;;2.70;1.80;;;;;;;23.17;18.13;100684.28;4963475;28;20053;-78
2024/01/29 07:48:59;;;;;;;2.65;1.70;;;;;;;22.99;18.11;100676.22;4963254;28;20461;-82
2024/01/29 07:51:24;;;;;;;;;;;;;;;22.90;17.97;100694.78;4963987;28;20121;-78
2024/01/29 07:53:50;;;;;;;2.42;1.63;;;;;;;22.87;18.16;100702.25;4962836;28;19918;-78
2024/01/29 07:56:15;;;;;;;2.80;1.77;;;;;;;22.94;18.25;100701.50;4962770;28;20038;-78
2024/01/29 07:58:41;;;;;;;2.50;1.50;;;;;;;23.05;18.25;100702.25;4978762;28;20046;-77
2024/01/29 08:01:06;;;;;;;2.30;1.58;;;;;;;23.23;17.90;100704.97;4962889;28;20042;-77
2024/01/29 08:03:32;;;;;;;2.60;1.40;;;;;;;23.38;17.81;100699.97;4962386;28;20038;-78
2024/01/29 08:05:57;;;;;;;1.75;1.27;;;;;;;23.60;17.75;100691.47;4962064;28;20042;-79
2024/01/29 08:08:23;;;;;;;2.53;1.70;;;;;;;23.87;17.52;100708.38;4963404;28;20046;-79
2024/01/29 08:10:49;;;;;;;1.67;1.15;;;;;;;23.98;17.28;100708.13;4962950;28;20142;-78
2024/01/29 08:13:15;;;;;;;2.97;1.45;;;;;;;24.05;17.14;100705.66;4946983;28;20042;-80
2024/01/29 08:15:40;;;;;;;2.35;1.50;;;;;;;23.91;17.48;100707.09;4962612;28;20477;-77
2024/01/29 08:18:06;;;;;;;3.25;1.50;;;;;;;23.41;17.88;100697.81;4946630;28;20501;-79
2024/01/29 08:20:31;;;;;;;2.42;1.40;;;;;;;23.07;17.69;100718.91;4962419;28;20045;-80
2024/01/29 08:22:57;;;;;;;1.90;1.30;;;;;;;22.70;18.23;100718.00;4947227;28;20042;-81
2024/01/29 08:25:24;;;;;;;2.45;1.30;;;;;;;22.52;18.40;100741.09;4962997;28;20042;-79
2024/01/29 08:27:50;;;;;;;4.50;1.60;;;;;;;22.54;18.41;100731.94;4978714;28;20042;-79
2024/01/29 08:30:15;;;;;;;2.53;1.40;;;;;;;22.61;18.58;100739.34;4946172;28;20049;-79
2024/01/29 08:32:43;;;;;;;3.28;1.60;;;;;;;22.74;18.39;100735.38;4946322;28;20564;-78
2024/01/29 08:35:09;;;;;;;1.80;1.38;;;;;;;22.94;18.23;100744.09;4978284;28;20030;-79
2024/01/29 08:37:34;;;;;;;2.08;1.33;;;;;;;23.17;18.00;100746.38;4978716;28;20053;-79
2024/01/29 08:40:00;;;;;;;2.47;1.60;;;;;;;23.22;18.04;100754.75;4962241;28;20034;-80
2024/01/29 08:42:25;;;;;;;1.88;1.20;;;;;;;23.15;18.17;100759.03;4946188;28;20461;-79
2024/01/29 08:44:55;;;;;;;2.35;1.58;;;;;;;23.63;17.50;100760.47;4945809;28;20042;-79
2024/01/29 08:47:24;;;;;;;3.83;1.23;;;;;;;23.46;17.70;100758.66;4963557;28;20038;-80
2024/01/29 08:49:52;;;;;;;;;;;;;;;23.61;17.44;100767.81;4979350;28;20038;-78
2024/01/29 08:52:17;;;;;;;2.25;1.50;;;;;;;23.71;17.47;100748.22;4961960;28;20304;-79
2024/01/29 08:54:44;;;;;;;2.60;1.40;;;;;;;23.18;17.83;100755.19;4962000;28;20057;-78
2024/01/29 08:57:10;;;;;;;1.50;1.05;;;;;;;22.57;18.30;100762.75;4978197;28;20049;-78
2024/01/29 08:59:35;;;;;;;2.53;1.23;;;;;;;22.65;18.17;100756.72;4961810;28;20121;-79
2024/01/29 09:02:01;;;;;;;2.15;1.40;;;;;;;22.44;18.14;100755.09;4977806;28;20074;-79
2024/01/29 09:04:27;;;;;;;1.90;1.48;;;;;;;22.36;18.31;100766.47;4945521;28;20031;-79
2024/01/29 09:06:52;;;;;;;2.47;1.40;;;;;;;22.40;18.27;100764.34;4962123;28;20042;-79
2024/01/29 09:09:18;;;;;;;2.33;1.48;;;;;;;22.17;18.58;100750.50;4946073;28;20041;-80
2024/01/29 09:11:43;;;;;;;2.78;1.60;;;;;;;22.57;18.19;100757.44;4961813;28;20050;-80
2024/01/29 09:14:09;;;;;;;2.20;1.50;;;;;;;22.19;18.39;100759.19;4977970;28;20130;-78
2024/01/29 09:16:34;;;;;;;2.55;1.67;;;;;;;22.66;18.05;100745.91;4945681;28;20070;-80
2024/01/29 09:19:00;;;;;;;2.78;1.70;;;;;;;22.27;18.53;100743.34;4977479;28;20507;-79
2024/01/29 09:21:29;;;;;;;3.65;1.70;;;;;;;22.70;18.00;100730.50;4961258;28;20043;-80
2024/01/29 09:23:54;;;;;;;2.90;1.80;;;;;;;23.38;17.32;100754.06;4962769;28;20040;-79
2024/01/29 09:26:20;;;;;;;3.13;2.03;;;;;;;24.34;16.47;100747.22;4978036;28;20050;-78
2024/01/29 09:28:45;;;;;;;4.28;1.73;;;;;;;25.41;15.51;100739.63;4977924;28;20042;-79
2024/01/29 09:31:11;;;;;;;2.30;1.70;;;;;;;26.82;14.34;100739.31;4961714;28;20049;-78
2024/01/29 09:33:36;;;;;;;2.95;1.80;;;;;;;27.77;13.87;100732.00;4961045;28;20042;-78
2024/01/29 09:36:02;;;;;;;2.97;1.98;;;;;;;28.49;13.24;100726.06;4977487;28;20077;-80
2024/01/29 09:38:27;;;;;;;2.45;1.80;;;;;;;28.62;12.95;100735.34;4977612;28;20046;-79
2024/01/29 09:40:54;;;;;;;2.95;1.70;;;;;;;27.83;13.66;100741.16;4977193;28;20042;-77
2024/01/29 09:43:20;;;;;;;4.15;1.80;;;;;;;26.86;14.08;100727.22;4961491;28;20077;-78
2024/01/29 09:45:46;;;;;;;2.60;1.88;;;;;;;26.16;14.92;100717.25;4961317;28;20042;-77
2024/01/29 09:48:13;;;;;;;3.40;1.92;;;;;;;25.67;15.28;100717.28;4976895;28;20030;-80
2024/01/29 09:50:39;;;;;;;2.50;1.85;;;;;;;25.41;15.26;100707.53;4944805;28;20050;-79
2024/01/29 09:53:04;;;;;;;2.90;2.00;;;;;;;25.75;15.11;100706.56;4960991;28;20042;-79
2024/01/29 09:55:30;;;;;;;2.92;2.10;;;;;;;26.48;14.60;100702.91;4944896;28;20081;-78
2024/01/29 09:57:55;;;;;;;3.00;1.88;;;;;;;27.35;13.70;100698.47;4959950;28;20045;-79
2024/01/29 10:00:21;;;;;;;3.60;1.90;;;;;;;28.13;13.24;100699.13;4944835;28;20053;-79
2024/01/29 10:02:46;;;;;;;2.42;1.67;;;;;;;28.28;12.82;100691.09;4944661;28;20599;-80
2024/01/29 10:05:12;;;;;;;3.65;1.80;;;;;;;28.20;13.17;100699.25;4944639;28;20046;-79
2024/01/29 10:07:38;;;;;;;2.33;1.70;;;;;;;27.82;13.02;100677.75;4944522;28;20035;-79
2024/01/29 10:10:10;;;;;;;3.35;1.45;;;;;;;27.11;13.82;100692.25;4960607;28;20154;-76
2024/01/29 10:12:36;;;;;;;5.30;1.70;;;;;;;26.47;13.83;100692.38;4961285;28;20034;-77
2024/01/29 10:15:02;;;;;;;4.32;1.60;;;;;;;25.92;14.46;100676.13;4976803;28;20112;-77
2024/01/29 10:17:28;;;;;;;4.18;1.60;;;;;;;25.70;14.69;100674.97;4961149;28;20057;-81
2024/01/29 10:19:53;;;;;;;2.17;1.55;;;;;;;25.28;14.82;100674.13;4960948;28;20486;-80
2024/01/29 10:22:24;;;;;;;3.53;1.90;;;;;;;24.98;15.17;100659.53;4960718;28;20038;-80
2024/01/29 10:25:02;;;;;;;4.97;1.70;;;;;;;24.71;15.23;100669.47;4976983;28;20046;-78
2024/01/29 10:27:28;;;;;;;2.90;1.70;;;;;;;24.57;15.40;100656.75;4960764;28;20622;-78
2024/01/29 10:29:54;;;;;;;2.58;1.50;;;;;;;24.83;15.36;100669.19;4960284;28;20046;-79
2024/01/29 10:32:23;;;;;;;2.67;1.60;;;;;;;24.62;15.52;100673.13;4960483;28;20502;-80
2024/01/29 10:34:49;;;;;;;2.05;1.40;;;;;;;24.52;15.71;100677.72;4944775;28;20042;-80
2024/01/29 10:37:17;;;;;;;3.40;1.60;;;;;;;24.14;15.75;100677.22;4976628;28;20038;-79
2024/01/29 10:39:43;;;;;;;2.53;1.50;;;;;;;23.89;16.16;100668.22;4960372;28;20099;-78
2024/01/29 10:42:11;;;;;;;2.10;1.30;;;;;;;23.58;16.24;100666.81;4960281;28;20035;-79
2024/01/29 10:44:37;;;;;;;2.20;1.60;;;;;;;23.40;16.22;100656.16;4944539;28;20498;-78
2024/01/29 10:47:13;;;;;;;2.50;1.60;;;;;;;23.03;16.61;100656.31;4975770;28;20061;-79
2024/01/29 10:49:40;;;;;;;2.63;1.75;;;;;;;22.77;16.83;100652.56;4944867;28;20101;-78
2024/01/29 10:52:06;;;;;;;3.17;1.70;;;;;;;22.51;17.21;100651.56;4959824;28;20049;-78
2024/01/29 10:54:32;;;;;;;2.83;1.60;;;;;;;22.59;17.11;100662.31;4959793;28;20030;-79
2024/01/29 10:56:58;;;;;;;2.78;1.75;;;;;;;22.18;17.45;100659.09;4943881;28;20497;-79
2024/01/29 10:59:23;;;;;;;3.00;1.90;;;;;;;21.97;17.42;100656.66;4960058;28;20485;-79
2024/01/29 11:01:49;;;;;;;3.22;1.90;;;;;;;21.88;17.94;100676.13;4960049;28;20046;-81
2024/01/29 11:04:16;;;;;;;2.45;1.65;;;;;;;21.62;17.65;100680.22;4959781;28;20037;-78
2024/01/29 11:06:52;;;;;;;5.20;1.83;;;;;;;21.44;17.88;100665.94;4976234;28;20049;-78
2024/01/29 11:09:18;;;;;;;2.35;1.63;;;;;;;21.44;18.51;100676.56;4960205;28;20056;-79
2024/01/29 11:11:46;;;;;;;3.25;1.95;;;;;;;21.28;18.36;100677.94;4959902;28;20057;-78
2024/01/29 11:14:11;;;;;;;2.67;1.85;;;;;;;21.19;18.41;100677.94;4960838;28;20501;-79
2024/01/29 11:16:37;;;;;;;2.83;1.70;;;;;;;21.02;18.27;100675.00;4959809;28;20069;-79
2024/01/29 11:19:03;;;;;;;3.17;1.88;;;;;;;20.85;18.50;100678.31;4943953;28;20046;-79
2024/01/29 11:21:28;;;;;;;3.53;1.65;;;;;;;20.61;18.92;100675.00;4944127;28;20125;-78
2024/01/29 11:23:55;;;;;;;2.58;1.77;;;;;;;20.35;19.13;100672.00;4959586;28;20039;-81